sensor_id;sensor_type;location;lat;lon;timestamp;pressure;altitude;pressure_sealevel;temperature;humidity
15817;BME280;8009;50.070;8.232;2023-03-26T00:03:46;99347.16;;;9.40;68.26
15817;BME280;8009;50.070;8.232;2023-03-26T00:15:41;99346.19;;;9.08;69.94
15817;BME280;8009;50.070;8.232;2023-03-26T00:24:49;99355.63;;;9.24;70.67
15817;BME280;8009;50.070;8.232;2023-03-26T00:27:23;99340.19;;;8.93;70.99
15817;BME280;8009;50.070;8.232;2023-03-26T00:29:54;99353.06;;;9.00;70.76
15817;BME280;8009;50.070;8.232;2023-03-26T00:32:26;99355.63;;;8.91;71.52
15817;BME280;8009;50.070;8.232;2023-03-26T00:51:10;99366.50;;;8.78;71.66
15817;BME280;8009;50.070;8.232;2023-03-26T00:57:18;99360.00;;;8.81;71.28
15817;BME280;8009;50.070;8.232;2023-03-26T01:16:13;99336.38;;;8.26;73.53
15817;BME280;8009;50.070;8.232;2023-03-26T01:18:45;99328.47;;;8.01;74.13
15817;BME280;8009;50.070;8.232;2023-03-26T01:34:06;99312.13;;;8.15;73.75
15817;BME280;8009;50.070;8.232;2023-03-26T01:40:03;99314.88;;;8.26;73.38
15817;BME280;8009;50.070;8.232;2023-03-26T01:42:36;99300.81;;;8.34;73.14
15817;BME280;8009;50.070;8.232;2023-03-26T01:45:15;99307.72;;;8.38;73.07
15817;BME280;8009;50.070;8.232;2023-03-26T01:47:46;99304.91;;;8.40;73.35
15817;BME280;8009;50.070;8.232;2023-03-26T01:50:38;99304.50;;;8.33;73.65
15817;BME280;8009;50.070;8.232;2023-03-26T01:56:11;99302.25;;;8.16;73.48
15817;BME280;8009;50.070;8.232;2023-03-26T01:58:54;99290.34;;;8.42;73.04
15817;BME280;8009;50.070;8.232;2023-03-26T02:01:31;99278.28;;;8.48;72.76
15817;BME280;8009;50.070;8.232;2023-03-26T02:04:23;99272.88;;;8.48;72.73
15817;BME280;8009;50.070;8.232;2023-03-26T02:06:59;99278.50;;;8.45;73.21
15817;BME280;8009;50.070;8.232;2023-03-26T02:09:45;99272.28;;;8.44;73.09
15817;BME280;8009;50.070;8.232;2023-03-26T02:12:15;99285.44;;;8.36;73.62
15817;BME280;8009;50.070;8.232;2023-03-26T02:14:45;99282.03;;;8.45;73.29
15817;BME280;8009;50.070;8.232;2023-03-26T02:17:14;99268.38;;;8.60;72.64
15817;BME280;8009;50.070;8.232;2023-03-26T02:19:43;99256.00;;;8.46;73.13
15817;BME280;8009;50.070;8.232;2023-03-26T02:22:14;99244.75;;;8.52;73.30
15817;BME280;8009;50.070;8.232;2023-03-26T02:24:43;99247.09;;;8.57;72.82
15817;BME280;8009;50.070;8.232;2023-03-26T02:27:12;99247.25;;;8.31;74.46
15817;BME280;8009;50.070;8.232;2023-03-26T02:29:42;99242.53;;;8.46;73.64
15817;BME280;8009;50.070;8.232;2023-03-26T02:32:12;99243.91;;;8.51;73.58
15817;BME280;8009;50.070;8.232;2023-03-26T02:34:40;99238.78;;;8.60;73.33
15817;BME280;8009;50.070;8.232;2023-03-26T02:37:09;99240.09;;;8.54;73.51
15817;BME280;8009;50.070;8.232;2023-03-26T02:39:40;99247.56;;;8.62;73.21
15817;BME280;8009;50.070;8.232;2023-03-26T02:42:08;99240.56;;;8.37;74.00
15817;BME280;8009;50.070;8.232;2023-03-26T02:44:37;99245.97;;;8.48;73.54
15817;BME280;8009;50.070;8.232;2023-03-26T02:47:05;99238.03;;;8.69;73.42
15817;BME280;8009;50.070;8.232;2023-03-26T02:49:34;99236.31;;;8.45;73.71
15817;BME280;8009;50.070;8.232;2023-03-26T02:52:04;99234.84;;;8.52;74.12
15817;BME280;8009;50.070;8.232;2023-03-26T02:54:33;99223.34;;;8.50;74.20
15817;BME280;8009;50.070;8.232;2023-03-26T02:57:05;99223.34;;;8.50;74.38
15817;BME280;8009;50.070;8.232;2023-03-26T02:59:33;99213.94;;;8.67;73.58
15817;BME280;8009;50.070;8.232;2023-03-26T03:02:01;99211.88;;;8.60;74.23
15817;BME280;8009;50.070;8.232;2023-03-26T03:04:30;99208.94;;;8.74;73.72
15817;BME280;8009;50.070;8.232;2023-03-26T03:07:00;99203.78;;;8.60;73.59
15817;BME280;8009;50.070;8.232;2023-03-26T03:09:30;99199.41;;;8.47;74.49
15817;BME280;8009;50.070;8.232;2023-03-26T03:12:01;99205.81;;;8.22;77.00
15817;BME280;8009;50.070;8.232;2023-03-26T03:14:32;99202.38;;;8.31;77.65
15817;BME280;8009;50.070;8.232;2023-03-26T03:17:00;99191.75;;;8.19;78.70
15817;BME280;8009;50.070;8.232;2023-03-26T03:19:29;99198.66;;;8.57;77.00
15817;BME280;8009;50.070;8.232;2023-03-26T03:21:57;99188.88;;;8.56;77.18
15817;BME280;8009;50.070;8.232;2023-03-26T03:24:25;99180.19;;;8.41;76.94
15817;BME280;8009;50.070;8.232;2023-03-26T03:26:54;99182.88;;;8.52;77.12
15817;BME280;8009;50.070;8.232;2023-03-26T03:29:24;99181.66;;;8.56;77.63
15817;BME280;8009;50.070;8.232;2023-03-26T03:31:55;99180.91;;;8.65;76.91
15817;BME280;8009;50.070;8.232;2023-03-26T03:34:24;99169.44;;;8.52;77.16
15817;BME280;8009;50.070;8.232;2023-03-26T03:36:55;99166.84;;;8.39;77.10
15817;BME280;8009;50.070;8.232;2023-03-26T03:39:23;99162.94;;;8.32;78.15
15817;BME280;8009;50.070;8.232;2023-03-26T03:41:51;99165.38;;;8.46;76.73
15817;BME280;8009;50.070;8.232;2023-03-26T03:44:20;99157.66;;;8.64;76.28
15817;BME280;8009;50.070;8.232;2023-03-26T03:46:48;99163.03;;;8.64;76.69
15817;BME280;8009;50.070;8.232;2023-03-26T03:49:21;99154.50;;;8.70;76.10
15817;BME280;8009;50.070;8.232;2023-03-26T03:51:49;99158.38;;;8.77;76.75
15817;BME280;8009;50.070;8.232;2023-03-26T03:54:17;99151.88;;;8.80;77.04
15817;BME280;8009;50.070;8.232;2023-03-26T03:56:46;99156.91;;;8.73;76.91
15817;BME280;8009;50.070;8.232;2023-03-26T03:59:14;99163.91;;;8.65;77.74
15817;BME280;8009;50.070;8.232;2023-03-26T04:01:42;99150.59;;;8.63;77.85
15817;BME280;8009;50.070;8.232;2023-03-26T04:04:11;99140.31;;;8.57;77.46
15817;BME280;8009;50.070;8.232;2023-03-26T04:06:42;99144.44;;;8.61;77.54
15817;BME280;8009;50.070;8.232;2023-03-26T04:09:10;99135.66;;;8.59;77.20
15817;BME280;8009;50.070;8.232;2023-03-26T04:11:39;99131.13;;;8.71;77.33
15817;BME280;8009;50.070;8.232;2023-03-26T04:14:07;99125.97;;;8.68;77.91
15817;BME280;8009;50.070;8.232;2023-03-26T04:16:35;99120.97;;;8.74;77.37
15817;BME280;8009;50.070;8.232;2023-03-26T04:19:04;99109.84;;;8.68;78.19
15817;BME280;8009;50.070;8.232;2023-03-26T04:21:32;99107.28;;;8.33;80.67
15817;BME280;8009;50.070;8.232;2023-03-26T04:24:08;99104.22;;;8.26;79.88
15817;BME280;8009;50.070;8.232;2023-03-26T04:26:37;99098.25;;;8.45;78.53
15817;BME280;8009;50.070;8.232;2023-03-26T04:29:07;99091.13;;;8.66;77.12
15817;BME280;8009;50.070;8.232;2023-03-26T04:31:38;99093.47;;;8.60;77.58
15817;BME280;8009;50.070;8.232;2023-03-26T04:34:08;99095.53;;;8.67;78.15
15817;BME280;8009;50.070;8.232;2023-03-26T04:36:42;99090.59;;;8.72;78.13
15817;BME280;8009;50.070;8.232;2023-03-26T04:39:13;99087.34;;;8.58;77.89
15817;BME280;8009;50.070;8.232;2023-03-26T04:41:42;99077.22;;;8.39;78.44
15817;BME280;8009;50.070;8.232;2023-03-26T04:44:11;99072.94;;;8.25;78.28
15817;BME280;8009;50.070;8.232;2023-03-26T04:46:41;99064.88;;;8.25;78.11
15817;BME280;8009;50.070;8.232;2023-03-26T04:49:10;99056.56;;;8.39;78.05
15817;BME280;8009;50.070;8.232;2023-03-26T04:51:40;99049.47;;;8.27;79.04
15817;BME280;8009;50.070;8.232;2023-03-26T04:54:15;99039.56;;;8.16;78.90
15817;BME280;8009;50.070;8.232;2023-03-26T04:56:49;99043.47;;;8.23;78.74
15817;BME280;8009;50.070;8.232;2023-03-26T04:59:22;99027.22;;;8.36;79.05
15817;BME280;8009;50.070;8.232;2023-03-26T05:01:54;99024.19;;;8.18;80.00
15817;BME280;8009;50.070;8.232;2023-03-26T05:04:24;99020.22;;;8.34;79.28
15817;BME280;8009;50.070;8.232;2023-03-26T05:06:54;99029.16;;;8.23;79.79
15817;BME280;8009;50.070;8.232;2023-03-26T05:09:26;99020.28;;;8.11;80.05
15817;BME280;8009;50.070;8.232;2023-03-26T05:11:55;99018.41;;;8.23;79.54
15817;BME280;8009;50.070;8.232;2023-03-26T05:14:23;99014.75;;;8.13;79.68
15817;BME280;8009;50.070;8.232;2023-03-26T05:16:52;99001.91;;;8.16;78.88
15817;BME280;8009;50.070;8.232;2023-03-26T05:19:21;98994.34;;;8.21;78.79
15817;BME280;8009;50.070;8.232;2023-03-26T05:21:50;98986.16;;;8.12;79.54
15817;BME280;8009;50.070;8.232;2023-03-26T05:24:19;98983.03;;;7.95;79.86
15817;BME280;8009;50.070;8.232;2023-03-26T05:26:51;98976.53;;;8.09;79.68
15817;BME280;8009;50.070;8.232;2023-03-26T05:29:20;98970.03;;;8.12;79.57
15817;BME280;8009;50.070;8.232;2023-03-26T05:31:48;98961.13;;;8.11;80.33
15817;BME280;8009;50.070;8.232;2023-03-26T05:34:18;98974.09;;;8.06;81.25
15817;BME280;8009;50.070;8.232;2023-03-26T05:36:48;98969.63;;;8.27;79.78
15817;BME280;8009;50.070;8.232;2023-03-26T05:39:16;98950.50;;;8.10;80.05
15817;BME280;8009;50.070;8.232;2023-03-26T05:41:54;98956.97;;;8.07;81.16
15817;BME280;8009;50.070;8.232;2023-03-26T05:44:23;98945.72;;;8.13;80.61
15817;BME280;8009;50.070;8.232;2023-03-26T05:46:52;98974.66;;;8.32;80.38
15817;BME280;8009;50.070;8.232;2023-03-26T05:49:22;98961.19;;;8.32;80.00
15817;BME280;8009;50.070;8.232;2023-03-26T05:51:50;98970.38;;;8.29;80.02
15817;BME280;8009;50.070;8.232;2023-03-26T05:54:18;98960.91;;;8.35;79.66
15817;BME280;8009;50.070;8.232;2023-03-26T05:56:46;98948.00;;;8.29;79.80
15817;BME280;8009;50.070;8.232;2023-03-26T05:59:18;98941.78;;;8.40;79.63
15817;BME280;8009;50.070;8.232;2023-03-26T06:01:48;98946.31;;;8.60;79.36
15817;BME280;8009;50.070;8.232;2023-03-26T06:04:18;98935.06;;;8.66;79.61
15817;BME280;8009;50.070;8.232;2023-03-26T06:06:47;98931.75;;;8.63;79.09
15817;BME280;8009;50.070;8.232;2023-03-26T06:09:17;98923.88;;;8.71;79.09
15817;BME280;8009;50.070;8.232;2023-03-26T06:11:46;98922.00;;;8.50;79.55
15817;BME280;8009;50.070;8.232;2023-03-26T06:14:14;98927.34;;;8.62;79.82
15817;BME280;8009;50.070;8.232;2023-03-26T06:16:45;98917.44;;;8.62;79.50
15817;BME280;8009;50.070;8.232;2023-03-26T06:19:13;98923.53;;;8.64;79.51
15817;BME280;8009;50.070;8.232;2023-03-26T06:21:42;98921.59;;;8.66;79.68
15817;BME280;8009;50.070;8.232;2023-03-26T06:24:10;98917.81;;;8.58;80.52
15817;BME280;8009;50.070;8.232;2023-03-26T06:26:40;98909.25;;;8.64;79.45
15817;BME280;8009;50.070;8.232;2023-03-26T06:29:09;98909.56;;;8.49;80.11
15817;BME280;8009;50.070;8.232;2023-03-26T06:31:37;98901.88;;;8.45;79.69
15817;BME280;8009;50.070;8.232;2023-03-26T06:34:08;98897.94;;;8.49;81.04
15817;BME280;8009;50.070;8.232;2023-03-26T06:36:36;98894.16;;;8.51;80.29
15817;BME280;8009;50.070;8.232;2023-03-26T06:39:05;98895.19;;;8.60;79.95
15817;BME280;8009;50.070;8.232;2023-03-26T06:41:35;98880.75;;;8.61;80.52
15817;BME280;8009;50.070;8.232;2023-03-26T06:44:04;98882.53;;;8.51;81.59
15817;BME280;8009;50.070;8.232;2023-03-26T06:46:32;98894.47;;;8.58;81.38
15817;BME280;8009;50.070;8.232;2023-03-26T06:49:01;98890.81;;;8.59;80.97
15817;BME280;8009;50.070;8.232;2023-03-26T06:51:32;98893.09;;;8.64;81.25
15817;BME280;8009;50.070;8.232;2023-03-26T06:54:02;98884.09;;;8.53;82.03
15817;BME280;8009;50.070;8.232;2023-03-26T06:56:30;98877.25;;;8.49;82.28
15817;BME280;8009;50.070;8.232;2023-03-26T06:58:58;98870.25;;;8.58;82.60
15817;BME280;8009;50.070;8.232;2023-03-26T07:01:27;98855.34;;;8.54;82.59
15817;BME280;8009;50.070;8.232;2023-03-26T07:03:55;98864.41;;;8.53;82.67
15817;BME280;8009;50.070;8.232;2023-03-26T07:06:23;98859.03;;;8.53;82.35
15817;BME280;8009;50.070;8.232;2023-03-26T07:08:54;98861.06;;;8.61;82.40
15817;BME280;8009;50.070;8.232;2023-03-26T07:11:23;98856.47;;;8.51;82.25
15817;BME280;8009;50.070;8.232;2023-03-26T07:13:51;98841.00;;;8.44;82.66
15817;BME280;8009;50.070;8.232;2023-03-26T07:16:20;98837.72;;;8.40;83.24
15817;BME280;8009;50.070;8.232;2023-03-26T07:18:48;98832.59;;;8.37;82.96
15817;BME280;8009;50.070;8.232;2023-03-26T07:21:19;98826.28;;;8.48;83.16
15817;BME280;8009;50.070;8.232;2023-03-26T07:23:49;98830.75;;;8.59;83.68
15817;BME280;8009;50.070;8.232;2023-03-26T07:26:25;98823.78;;;8.56;83.24
15817;BME280;8009;50.070;8.232;2023-03-26T07:29:03;98818.75;;;8.63;83.00
15817;BME280;8009;50.070;8.232;2023-03-26T07:31:37;98811.50;;;8.42;84.40
15817;BME280;8009;50.070;8.232;2023-03-26T07:34:16;98808.59;;;8.34;84.42
15817;BME280;8009;50.070;8.232;2023-03-26T07:36:51;98808.91;;;8.52;84.12
15817;BME280;8009;50.070;8.232;2023-03-26T07:39:34;98801.88;;;8.61;83.28
15817;BME280;8009;50.070;8.232;2023-03-26T07:42:17;98799.28;;;8.80;83.15
15817;BME280;8009;50.070;8.232;2023-03-26T07:44:55;98783.38;;;8.77;83.24
15817;BME280;8009;50.070;8.232;2023-03-26T07:47:28;98783.38;;;8.77;82.76
15817;BME280;8009;50.070;8.232;2023-03-26T07:49:57;98786.41;;;8.84;82.89
15817;BME280;8009;50.070;8.232;2023-03-26T07:52:27;98775.31;;;8.77;83.08
15817;BME280;8009;50.070;8.232;2023-03-26T07:54:56;98779.44;;;8.81;82.36
15817;BME280;8009;50.070;8.232;2023-03-26T07:57:37;98777.41;;;8.64;83.63
15817;BME280;8009;50.070;8.232;2023-03-26T08:00:13;98777.31;;;8.54;83.77
15817;BME280;8009;50.070;8.232;2023-03-26T08:03:12;98775.19;;;8.78;82.97
15817;BME280;8009;50.070;8.232;2023-03-26T08:05:50;98776.13;;;8.68;83.15
15817;BME280;8009;50.070;8.232;2023-03-26T08:08:24;98771.78;;;8.76;83.06
15817;BME280;8009;50.070;8.232;2023-03-26T08:11:04;98770.50;;;8.71;83.19
15817;BME280;8009;50.070;8.232;2023-03-26T08:13:50;98772.13;;;8.62;83.95
15817;BME280;8009;50.070;8.232;2023-03-26T08:16:23;98772.69;;;8.87;83.25
15817;BME280;8009;50.070;8.232;2023-03-26T08:18:59;98763.94;;;8.94;83.13
15817;BME280;8009;50.070;8.232;2023-03-26T08:21:33;98768.16;;;8.87;82.91
15817;BME280;8009;50.070;8.232;2023-03-26T08:24:07;98765.09;;;8.71;83.45
15817;BME280;8009;50.070;8.232;2023-03-26T08:26:46;98760.50;;;8.92;82.53
15817;BME280;8009;50.070;8.232;2023-03-26T08:29:25;98771.44;;;8.91;82.97
15817;BME280;8009;50.070;8.232;2023-03-26T08:31:59;98763.78;;;8.96;83.39
15817;BME280;8009;50.070;8.232;2023-03-26T08:34:28;98770.56;;;8.90;83.05
15817;BME280;8009;50.070;8.232;2023-03-26T08:36:57;98761.25;;;8.94;82.75
15817;BME280;8009;50.070;8.232;2023-03-26T08:39:25;98747.03;;;8.83;83.34
15817;BME280;8009;50.070;8.232;2023-03-26T08:42:16;98748.91;;;8.92;83.46
15817;BME280;8009;50.070;8.232;2023-03-26T08:45:25;98743.66;;;8.90;83.18
15817;BME280;8009;50.070;8.232;2023-03-26T08:48:18;98749.88;;;8.91;83.68
15817;BME280;8009;50.070;8.232;2023-03-26T08:57:11;98726.41;;;9.02;83.75
15817;BME280;8009;50.070;8.232;2023-03-26T09:00:02;98734.34;;;9.04;83.24
15817;BME280;8009;50.070;8.232;2023-03-26T09:02:58;98750.06;;;8.99;83.99
15817;BME280;8009;50.070;8.232;2023-03-26T09:05:44;98751.16;;;8.96;84.45
15817;BME280;8009;50.070;8.232;2023-03-26T09:11:27;98740.72;;;9.03;83.54
15817;BME280;8009;50.070;8.232;2023-03-26T09:17:38;98718.38;;;9.22;82.45
15817;BME280;8009;50.070;8.232;2023-03-26T09:20:33;98707.63;;;9.32;83.04
15817;BME280;8009;50.070;8.232;2023-03-26T09:23:27;98704.63;;;9.35;82.93
15817;BME280;8009;50.070;8.232;2023-03-26T09:26:09;98699.66;;;9.20;82.80
15817;BME280;8009;50.070;8.232;2023-03-26T09:31:53;98694.94;;;9.03;83.02
15817;BME280;8009;50.070;8.232;2023-03-26T09:34:29;98690.00;;;9.08;82.96
15817;BME280;8009;50.070;8.232;2023-03-26T09:37:13;98699.63;;;9.11;82.19
15817;BME280;8009;50.070;8.232;2023-03-26T09:39:56;98697.94;;;9.10;82.16
15817;BME280;8009;50.070;8.232;2023-03-26T09:42:36;98687.59;;;9.05;82.92
15817;BME280;8009;50.070;8.232;2023-03-26T09:45:42;98691.13;;;9.06;83.15
15817;BME280;8009;50.070;8.232;2023-03-26T09:48:37;98686.31;;;9.19;82.68
15817;BME280;8009;50.070;8.232;2023-03-26T09:51:32;98686.94;;;9.32;82.94
15817;BME280;8009;50.070;8.232;2023-03-26T09:54:21;98683.53;;;9.40;81.54
15817;BME280;8009;50.070;8.232;2023-03-26T09:56:54;98684.63;;;9.18;81.69
15817;BME280;8009;50.070;8.232;2023-03-26T09:59:52;98672.91;;;9.48;82.25
15817;BME280;8009;50.070;8.232;2023-03-26T10:02:55;98671.47;;;9.34;81.74
15817;BME280;8009;50.070;8.232;2023-03-26T10:05:38;98668.50;;;9.47;82.04
15817;BME280;8009;50.070;8.232;2023-03-26T10:08:31;98654.00;;;9.58;81.51
15817;BME280;8009;50.070;8.232;2023-03-26T10:11:11;98659.13;;;9.70;81.20
15817;BME280;8009;50.070;8.232;2023-03-26T10:13:58;98655.13;;;9.84;80.90
15817;BME280;8009;50.070;8.232;2023-03-26T10:16:37;98650.16;;;9.80;80.48
15817;BME280;8009;50.070;8.232;2023-03-26T10:19:32;98651.63;;;9.55;82.06
15817;BME280;8009;50.070;8.232;2023-03-26T10:22:10;98651.03;;;9.80;80.09
15817;BME280;8009;50.070;8.232;2023-03-26T10:25:03;98643.63;;;10.01;80.74
15817;BME280;8009;50.070;8.232;2023-03-26T10:27:44;98634.38;;;10.04;79.54
15817;BME280;8009;50.070;8.232;2023-03-26T10:30:24;98635.44;;;10.40;79.29
15817;BME280;8009;50.070;8.232;2023-03-26T10:33:00;98631.22;;;10.28;80.38
15817;BME280;8009;50.070;8.232;2023-03-26T10:35:40;98624.91;;;10.37;79.30
15817;BME280;8009;50.070;8.232;2023-03-26T10:38:15;98620.72;;;10.15;79.53
15817;BME280;8009;50.070;8.232;2023-03-26T10:41:04;98621.13;;;10.20;79.93
15817;BME280;8009;50.070;8.232;2023-03-26T10:44:07;98626.03;;;9.88;80.16
15817;BME280;8009;50.070;8.232;2023-03-26T10:50:02;98615.44;;;10.33;79.52
15817;BME280;8009;50.070;8.232;2023-03-26T10:52:41;98603.09;;;10.58;79.25
15817;BME280;8009;50.070;8.232;2023-03-26T10:55:17;98612.34;;;10.56;79.25
15817;BME280;8009;50.070;8.232;2023-03-26T10:57:49;98621.44;;;10.27;80.11
15817;BME280;8009;50.070;8.232;2023-03-26T11:00:25;98605.72;;;10.50;79.53
15817;BME280;8009;50.070;8.232;2023-03-26T11:03:10;98598.16;;;10.54;78.66
15817;BME280;8009;50.070;8.232;2023-03-26T11:05:48;98597.38;;;10.89;78.16
15817;BME280;8009;50.070;8.232;2023-03-26T11:08:23;98603.78;;;11.06;77.25
15817;BME280;8009;50.070;8.232;2023-03-26T11:10:56;98598.63;;;11.12;77.13
15817;BME280;8009;50.070;8.232;2023-03-26T11:13:39;98603.41;;;11.01;78.74
15817;BME280;8009;50.070;8.232;2023-03-26T11:16:18;98596.16;;;11.01;79.33
15817;BME280;8009;50.070;8.232;2023-03-26T11:18:56;98600.59;;;10.74;77.70
15817;BME280;8009;50.070;8.232;2023-03-26T11:21:32;98600.59;;;10.47;80.00
15817;BME280;8009;50.070;8.232;2023-03-26T11:24:17;98596.31;;;10.27;79.55
15817;BME280;8009;50.070;8.232;2023-03-26T11:26:53;98576.84;;;10.78;78.86
15817;BME280;8009;50.070;8.232;2023-03-26T11:29:33;98586.19;;;11.02;78.29
15817;BME280;8009;50.070;8.232;2023-03-26T11:32:12;98593.16;;;11.04;78.15
15817;BME280;8009;50.070;8.232;2023-03-26T11:34:44;98588.78;;;10.76;79.92
15817;BME280;8009;50.070;8.232;2023-03-26T11:37:17;98585.78;;;10.61;80.82
15817;BME280;8009;50.070;8.232;2023-03-26T11:39:49;98577.78;;;10.69;80.26
15817;BME280;8009;50.070;8.232;2023-03-26T11:42:21;98562.44;;;11.05;77.41
15817;BME280;8009;50.070;8.232;2023-03-26T11:44:53;98568.53;;;11.43;75.89
15817;BME280;8009;50.070;8.232;2023-03-26T11:47:29;98567.59;;;11.16;77.55
15817;BME280;8009;50.070;8.232;2023-03-26T11:50:01;98566.63;;;11.00;77.50
15817;BME280;8009;50.070;8.232;2023-03-26T11:52:31;98563.34;;;11.50;75.98
15817;BME280;8009;50.070;8.232;2023-03-26T11:55:00;98557.97;;;11.76;75.05
15817;BME280;8009;50.070;8.232;2023-03-26T11:57:30;98552.25;;;10.81;75.88
15817;BME280;8009;50.070;8.232;2023-03-26T12:00:04;98557.72;;;11.25;73.71
15817;BME280;8009;50.070;8.232;2023-03-26T12:02:44;98552.78;;;11.38;73.40
15817;BME280;8009;50.070;8.232;2023-03-26T12:05:20;98552.50;;;10.88;75.25
15817;BME280;8009;50.070;8.232;2023-03-26T12:07:53;98555.66;;;11.63;74.10
15817;BME280;8009;50.070;8.232;2023-03-26T12:10:28;98550.25;;;11.63;71.41
15817;BME280;8009;50.070;8.232;2023-03-26T12:13:00;98542.59;;;12.02;72.17
15817;BME280;8009;50.070;8.232;2023-03-26T12:15:29;98534.34;;;11.60;75.72
15817;BME280;8009;50.070;8.232;2023-03-26T12:18:22;98532.78;;;12.01;74.18
15817;BME280;8009;50.070;8.232;2023-03-26T12:21:03;98535.75;;;11.64;74.29
15817;BME280;8009;50.070;8.232;2023-03-26T12:26:29;98543.84;;;12.16;75.18
15817;BME280;8009;50.070;8.232;2023-03-26T12:29:05;98539.03;;;12.02;72.88
15817;BME280;8009;50.070;8.232;2023-03-26T12:31:44;98528.69;;;11.97;72.34
15817;BME280;8009;50.070;8.232;2023-03-26T12:34:18;98524.69;;;12.09;72.43
15817;BME280;8009;50.070;8.232;2023-03-26T12:36:50;98518.53;;;11.91;72.44
15817;BME280;8009;50.070;8.232;2023-03-26T12:39:40;98529.66;;;11.88;73.10
15817;BME280;8009;50.070;8.232;2023-03-26T12:42:24;98520.72;;;11.43;75.20
15817;BME280;8009;50.070;8.232;2023-03-26T12:44:55;98517.22;;;11.77;76.49
15817;BME280;8009;50.070;8.232;2023-03-26T12:47:26;98524.31;;;11.78;76.38
15817;BME280;8009;50.070;8.232;2023-03-26T12:49:57;98517.53;;;11.74;75.69
15817;BME280;8009;50.070;8.232;2023-03-26T12:52:43;98496.66;;;12.10;73.69
15817;BME280;8009;50.070;8.232;2023-03-26T12:55:30;98495.63;;;12.62;72.40
15817;BME280;8009;50.070;8.232;2023-03-26T12:58:14;98485.53;;;12.22;71.23
15817;BME280;8009;50.070;8.232;2023-03-26T13:00:53;98484.53;;;12.31;72.21
15817;BME280;8009;50.070;8.232;2023-03-26T13:03:37;98475.31;;;12.58;70.84
15817;BME280;8009;50.070;8.232;2023-03-26T13:09:37;98474.03;;;12.86;68.08
15817;BME280;8009;50.070;8.232;2023-03-26T13:12:19;98478.69;;;12.52;67.76
15817;BME280;8009;50.070;8.232;2023-03-26T13:15:16;98462.69;;;12.91;63.96
15817;BME280;8009;50.070;8.232;2023-03-26T13:18:00;98467.72;;;12.61;65.15
15817;BME280;8009;50.070;8.232;2023-03-26T13:20:43;98463.47;;;12.59;65.62
15817;BME280;8009;50.070;8.232;2023-03-26T13:23:26;98470.59;;;12.60;64.25
15817;BME280;8009;50.070;8.232;2023-03-26T13:26:05;98480.75;;;12.07;65.45
15817;BME280;8009;50.070;8.232;2023-03-26T13:28:43;98497.22;;;11.88;67.92
15817;BME280;8009;50.070;8.232;2023-03-26T13:31:21;98489.34;;;11.77;69.93
15817;BME280;8009;50.070;8.232;2023-03-26T13:33:57;98486.97;;;11.74;70.69
15817;BME280;8009;50.070;8.232;2023-03-26T13:36:43;98484.84;;;12.19;69.21
15817;BME280;8009;50.070;8.232;2023-03-26T13:39:23;98471.94;;;12.56;69.47
15817;BME280;8009;50.070;8.232;2023-03-26T13:42:13;98471.19;;;12.29;69.19
15817;BME280;8009;50.070;8.232;2023-03-26T13:44:55;98469.13;;;12.23;68.82
15817;BME280;8009;50.070;8.232;2023-03-26T13:47:40;98457.72;;;12.54;65.65
15817;BME280;8009;50.070;8.232;2023-03-26T13:50:20;98457.47;;;12.31;66.85
15817;BME280;8009;50.070;8.232;2023-03-26T13:52:54;98458.34;;;12.39;66.57
15817;BME280;8009;50.070;8.232;2023-03-26T13:55:32;98467.47;;;12.30;65.74
15817;BME280;8009;50.070;8.232;2023-03-26T13:58:05;98461.72;;;12.25;66.77
15817;BME280;8009;50.070;8.232;2023-03-26T14:04:14;98464.00;;;12.12;66.92
15817;BME280;8009;50.070;8.232;2023-03-26T14:13:27;98459.78;;;12.92;64.39
15817;BME280;8009;50.070;8.232;2023-03-26T14:15:58;98460.28;;;13.12;64.29
15817;BME280;8009;50.070;8.232;2023-03-26T14:18:34;98458.94;;;12.92;63.61
15817;BME280;8009;50.070;8.232;2023-03-26T14:37:14;98444.03;;;13.04;59.95
15817;BME280;8009;50.070;8.232;2023-03-26T14:59:30;98433.53;;;12.85;59.42
15817;BME280;8009;50.070;8.232;2023-03-26T15:05:44;98436.09;;;12.86;58.85
15817;BME280;8009;50.070;8.232;2023-03-26T15:18:14;98438.34;;;12.24;59.96
15817;BME280;8009;50.070;8.232;2023-03-26T15:31:21;98542.97;;;10.66;71.41
15817;BME280;8009;50.070;8.232;2023-03-26T15:39:42;60979.19;;;-147.83;100.00
15817;BME280;8009;50.070;8.232;2023-03-26T15:43:21;60979.19;;;-147.83;100.00
15817;BME280;8009;50.070;8.232;2023-03-26T15:46:51;60979.19;;;-147.83;100.00
15817;BME280;8009;50.070;8.232;2023-03-26T15:50:39;60979.19;;;-147.83;100.00
15817;BME280;8009;50.070;8.232;2023-03-26T15:54:22;60979.19;;;-147.83;100.00
15817;BME280;8009;50.070;8.232;2023-03-26T15:58:03;60979.19;;;-147.83;100.00
15817;BME280;8009;50.070;8.232;2023-03-26T16:01:40;60979.19;;;-147.83;100.00
15817;BME280;8009;50.070;8.232;2023-03-26T16:04:22;98552.69;;;9.84;78.51
15817;BME280;8009;50.070;8.232;2023-03-26T16:06:59;98557.06;;;9.95;78.15
15817;BME280;8009;50.070;8.232;2023-03-26T16:12:44;98574.06;;;9.95;79.79
15817;BME280;8009;50.070;8.232;2023-03-26T16:15:28;98570.19;;;10.27;77.18
15817;BME280;8009;50.070;8.232;2023-03-26T16:18:18;98563.56;;;10.39;78.19
15817;BME280;8009;50.070;8.232;2023-03-26T16:20:53;98568.16;;;10.29;77.13
15817;BME280;8009;50.070;8.232;2023-03-26T16:23:29;98566.66;;;10.07;76.31
15817;BME280;8009;50.070;8.232;2023-03-26T16:26:13;98572.78;;;9.99;77.71
15817;BME280;8009;50.070;8.232;2023-03-26T16:32:07;98555.34;;;10.04;77.46
15817;BME280;8009;50.070;8.232;2023-03-26T16:34:43;98555.38;;;9.84;78.28
15817;BME280;8009;50.070;8.232;2023-03-26T16:37:40;98553.72;;;9.73;77.59
15817;BME280;8009;50.070;8.232;2023-03-26T16:40:34;98558.06;;;9.84;77.31
15817;BME280;8009;50.070;8.232;2023-03-26T16:43:13;98552.22;;;9.98;76.85
15817;BME280;8009;50.070;8.232;2023-03-26T16:45:55;98554.22;;;9.96;77.28
15817;BME280;8009;50.070;8.232;2023-03-26T16:48:30;98551.41;;;9.88;76.59
15817;BME280;8009;50.070;8.232;2023-03-26T16:51:04;98548.56;;;9.43;77.62
15817;BME280;8009;50.070;8.232;2023-03-26T16:53:38;98556.19;;;9.47;77.95
15817;BME280;8009;50.070;8.232;2023-03-26T16:56:15;98562.72;;;9.25;80.06
15817;BME280;8009;50.070;8.232;2023-03-26T16:58:54;98566.81;;;9.49;78.32
15817;BME280;8009;50.070;8.232;2023-03-26T17:01:34;98570.47;;;9.67;77.54
15817;BME280;8009;50.070;8.232;2023-03-26T17:04:09;98568.91;;;9.74;77.31
15817;BME280;8009;50.070;8.232;2023-03-26T17:09:41;98583.31;;;9.93;75.44
15817;BME280;8009;50.070;8.232;2023-03-26T17:12:24;98586.47;;;9.88;77.69